sensor_id;sensor_type;location;lat;lon;timestamp;pressure;altitude;pressure_sealevel;temperature;humidity
22389;BME280;11362;48.102;11.620;2024-03-22T00:01:59;95926.75;;;24.98;37.77
22389;BME280;11362;48.102;11.620;2024-03-22T00:04:25;95919.19;;;24.98;37.72
22389;BME280;11362;48.102;11.620;2024-03-22T00:06:50;95921.19;;;24.98;37.65
22389;BME280;11362;48.102;11.620;2024-03-22T00:09:16;95920.75;;;24.99;37.65
22389;BME280;11362;48.102;11.620;2024-03-22T00:11:43;95923.53;;;24.99;37.61
22389;BME280;11362;48.102;11.620;2024-03-22T00:14:09;95915.63;;;24.98;37.92
22389;BME280;11362;48.102;11.620;2024-03-22T00:16:35;95918.81;;;24.96;37.69
22389;BME280;11362;48.102;11.620;2024-03-22T00:19:01;95921.19;;;24.98;37.95
22389;BME280;11362;48.102;11.620;2024-03-22T00:21:26;95921.59;;;24.96;37.67
22389;BME280;11362;48.102;11.620;2024-03-22T00:23:52;95924.38;;;24.96;37.80
22389;BME280;11362;48.102;11.620;2024-03-22T00:26:17;95912.03;;;24.97;37.66
22389;BME280;11362;48.102;11.620;2024-03-22T00:28:42;95916.03;;;24.96;37.75
22389;BME280;11362;48.102;11.620;2024-03-22T00:31:08;95912.06;;;24.94;37.84
22389;BME280;11362;48.102;11.620;2024-03-22T00:33:34;95915.22;;;24.96;37.63
22389;BME280;11362;48.102;11.620;2024-03-22T00:35:59;95908.88;;;24.95;37.84
22389;BME280;11362;48.102;11.620;2024-03-22T00:38:25;95914.84;;;24.94;37.73
22389;BME280;11362;48.102;11.620;2024-03-22T00:40:50;95910.50;;;24.93;37.75
22389;BME280;11362;48.102;11.620;2024-03-22T00:43:15;95900.59;;;24.92;37.90
22389;BME280;11362;48.102;11.620;2024-03-22T00:45:40;95907.31;;;24.94;37.63
22389;BME280;11362;48.102;11.620;2024-03-22T00:48:06;95898.97;;;24.94;37.71
22389;BME280;11362;48.102;11.620;2024-03-22T00:50:32;95890.66;;;24.91;37.93
22389;BME280;11362;48.102;11.620;2024-03-22T00:52:57;95885.09;;;24.94;37.48
22389;BME280;11362;48.102;11.620;2024-03-22T00:55:23;95885.88;;;24.91;37.85
22389;BME280;11362;48.102;11.620;2024-03-22T00:57:48;95879.97;;;24.89;37.82
22389;BME280;11362;48.102;11.620;2024-03-22T01:00:15;95885.44;;;24.96;37.75
22389;BME280;11362;48.102;11.620;2024-03-22T01:02:40;95881.91;;;24.92;37.82
22389;BME280;11362;48.102;11.620;2024-03-22T01:05:06;95883.09;;;24.91;37.86
22389;BME280;11362;48.102;11.620;2024-03-22T01:07:31;95879.13;;;24.92;37.66
22389;BME280;11362;48.102;11.620;2024-03-22T01:09:57;95873.22;;;24.87;37.89
22389;BME280;11362;48.102;11.620;2024-03-22T01:12:22;95879.56;;;24.91;37.80
22389;BME280;11362;48.102;11.620;2024-03-22T01:14:47;95864.50;;;24.88;37.92
22389;BME280;11362;48.102;11.620;2024-03-22T01:17:13;95867.63;;;24.90;37.75
22389;BME280;11362;48.102;11.620;2024-03-22T01:19:38;95855.34;;;24.88;37.69
22389;BME280;11362;48.102;11.620;2024-03-22T01:22:03;95856.16;;;24.88;37.56
22389;BME280;11362;48.102;11.620;2024-03-22T01:24:28;95853.78;;;24.87;37.75
22389;BME280;11362;48.102;11.620;2024-03-22T01:26:54;95854.19;;;24.89;37.48
22389;BME280;11362;48.102;11.620;2024-03-22T01:29:19;95861.31;;;24.90;37.63
22389;BME280;11362;48.102;11.620;2024-03-22T01:31:44;95851.00;;;24.87;37.71
22389;BME280;11362;48.102;11.620;2024-03-22T01:34:09;95849.03;;;24.87;37.56
22389;BME280;11362;48.102;11.620;2024-03-22T01:36:35;95851.00;;;24.87;37.64
22389;BME280;11362;48.102;11.620;2024-03-22T01:39:00;95855.78;;;24.86;37.50
22389;BME280;11362;48.102;11.620;2024-03-22T01:41:25;95844.66;;;24.86;37.68
22389;BME280;11362;48.102;11.620;2024-03-22T01:43:51;95851.00;;;24.87;37.60
22389;BME280;11362;48.102;11.620;2024-03-22T01:46:16;95847.00;;;24.88;37.72
22389;BME280;11362;48.102;11.620;2024-03-22T01:48:41;95851.44;;;24.85;37.50
22389;BME280;11362;48.102;11.620;2024-03-22T01:51:07;95845.88;;;24.85;37.44
22389;BME280;11362;48.102;11.620;2024-03-22T01:53:34;95841.50;;;24.84;37.66
22389;BME280;11362;48.102;11.620;2024-03-22T01:56:00;95837.53;;;24.85;37.58
22389;BME280;11362;48.102;11.620;2024-03-22T01:58:25;95837.91;;;24.87;37.42
22389;BME280;11362;48.102;11.620;2024-03-22T02:00:50;95839.47;;;24.88;37.31
22389;BME280;11362;48.102;11.620;2024-03-22T02:03:16;95839.47;;;24.88;37.48
22389;BME280;11362;48.102;11.620;2024-03-22T02:05:41;95831.94;;;24.89;37.30
22389;BME280;11362;48.102;11.620;2024-03-22T02:08:06;95836.72;;;24.85;37.40
22389;BME280;11362;48.102;11.620;2024-03-22T02:10:32;95825.97;;;24.87;37.36
22389;BME280;11362;48.102;11.620;2024-03-22T02:12:57;95827.97;;;24.90;37.64
22389;BME280;11362;48.102;11.620;2024-03-22T02:15:22;95818.81;;;24.89;37.60
22389;BME280;11362;48.102;11.620;2024-03-22T02:17:48;95811.31;;;24.86;37.59
22389;BME280;11362;48.102;11.620;2024-03-22T02:20:13;95812.09;;;24.87;37.25
22389;BME280;11362;48.102;11.620;2024-03-22T02:22:38;95817.25;;;24.88;37.59
22389;BME280;11362;48.102;11.620;2024-03-22T02:25:04;95817.97;;;24.92;37.41
22389;BME280;11362;48.102;11.620;2024-03-22T02:27:29;95812.06;;;24.90;37.17
22389;BME280;11362;48.102;11.620;2024-03-22T02:29:55;95811.66;;;24.92;37.56
22389;BME280;11362;48.102;11.620;2024-03-22T02:32:20;95806.09;;;24.92;37.22
22389;BME280;11362;48.102;11.620;2024-03-22T02:34:45;95809.56;;;24.99;37.14
22389;BME280;11362;48.102;11.620;2024-03-22T02:37:11;95807.97;;;25.02;36.95
22389;BME280;11362;48.102;11.620;2024-03-22T02:39:36;95800.88;;;24.97;37.05
22389;BME280;11362;48.102;11.620;2024-03-22T02:42:01;95801.75;;;24.91;37.15
22389;BME280;11362;48.102;11.620;2024-03-22T02:44:26;95798.16;;;24.90;37.33
22389;BME280;11362;48.102;11.620;2024-03-22T02:46:52;95791.03;;;24.89;37.28
22389;BME280;11362;48.102;11.620;2024-03-22T02:49:17;95798.53;;;24.92;37.05
22389;BME280;11362;48.102;11.620;2024-03-22T02:51:42;95791.81;;;24.90;37.19
22389;BME280;11362;48.102;11.620;2024-03-22T02:54:07;95795.38;;;24.90;37.13
22389;BME280;11362;48.102;11.620;2024-03-22T02:56:33;95790.63;;;24.91;37.19
22389;BME280;11362;48.102;11.620;2024-03-22T02:58:58;95795.81;;;24.89;36.79
22389;BME280;11362;48.102;11.620;2024-03-22T03:01:23;95791.44;;;24.88;37.16
22389;BME280;11362;48.102;11.620;2024-03-22T03:03:48;95783.53;;;24.86;37.28
22389;BME280;11362;48.102;11.620;2024-03-22T03:06:14;95785.09;;;24.87;37.16
22389;BME280;11362;48.102;11.620;2024-03-22T03:08:39;95784.25;;;24.90;37.13
22389;BME280;11362;48.102;11.620;2024-03-22T03:11:05;95776.28;;;24.92;37.04
22389;BME280;11362;48.102;11.620;2024-03-22T03:13:30;95776.38;;;24.89;37.13
22389;BME280;11362;48.102;11.620;2024-03-22T03:15:56;95773.59;;;24.89;36.96
22389;BME280;11362;48.102;11.620;2024-03-22T03:18:22;95766.06;;;24.86;37.21
22389;BME280;11362;48.102;11.620;2024-03-22T03:20:47;95762.06;;;24.87;37.06
22389;BME280;11362;48.102;11.620;2024-03-22T03:23:12;95765.66;;;24.87;37.17
22389;BME280;11362;48.102;11.620;2024-03-22T03:25:38;95765.25;;;24.89;37.15
22389;BME280;11362;48.102;11.620;2024-03-22T03:28:03;95764.44;;;24.88;36.96
22389;BME280;11362;48.102;11.620;2024-03-22T03:30:28;95766.84;;;24.86;37.20
22389;BME280;11362;48.102;11.620;2024-03-22T03:32:54;95759.72;;;24.85;36.97
22389;BME280;11362;48.102;11.620;2024-03-22T03:35:19;95764.06;;;24.86;36.85
22389;BME280;11362;48.102;11.620;2024-03-22T03:37:44;95761.28;;;24.86;36.89
22389;BME280;11362;48.102;11.620;2024-03-22T03:40:10;95758.53;;;24.86;36.90
22389;BME280;11362;48.102;11.620;2024-03-22T03:42:35;95752.97;;;24.86;37.13
22389;BME280;11362;48.102;11.620;2024-03-22T03:45:00;95754.91;;;24.89;37.03
22389;BME280;11362;48.102;11.620;2024-03-22T03:47:26;95753.31;;;24.88;37.24
22389;BME280;11362;48.102;11.620;2024-03-22T03:49:51;95748.97;;;24.87;37.03
22389;BME280;11362;48.102;11.620;2024-03-22T03:52:16;95751.75;;;24.87;37.14
22389;BME280;11362;48.102;11.620;2024-03-22T03:54:41;95746.97;;;24.88;37.06
22389;BME280;11362;48.102;11.620;2024-03-22T03:57:07;95741.84;;;24.86;37.17
22389;BME280;11362;48.102;11.620;2024-03-22T03:59:32;95733.50;;;24.86;37.16
22389;BME280;11362;48.102;11.620;2024-03-22T04:01:57;95739.06;;;24.86;37.11
22389;BME280;11362;48.102;11.620;2024-03-22T04:04:22;95736.28;;;24.86;37.07
22389;BME280;11362;48.102;11.620;2024-03-22T04:06:48;95730.28;;;24.88;37.18
22389;BME280;11362;48.102;11.620;2024-03-22T04:09:13;95735.50;;;24.86;37.01
22389;BME280;11362;48.102;11.620;2024-03-22T04:11:38;95733.13;;;24.84;37.38
22389;BME280;11362;48.102;11.620;2024-03-22T04:14:04;95731.13;;;24.85;37.10
22389;BME280;11362;48.102;11.620;2024-03-22T04:16:30;95723.97;;;24.87;36.90
22389;BME280;11362;48.102;11.620;2024-03-22T04:18:55;95721.59;;;24.86;37.12
22389;BME280;11362;48.102;11.620;2024-03-22T04:21:21;95718.81;;;24.86;37.08
22389;BME280;11362;48.102;11.620;2024-03-22T04:23:46;95712.50;;;24.85;36.88
22389;BME280;11362;48.102;11.620;2024-03-22T04:26:11;95715.25;;;24.85;36.84
22389;BME280;11362;48.102;11.620;2024-03-22T04:28:36;95708.50;;;24.86;37.01
22389;BME280;11362;48.102;11.620;2024-03-22T04:31:04;95702.13;;;24.86;37.00
22389;BME280;11362;48.102;11.620;2024-03-22T04:33:30;95705.75;;;24.83;36.99
22389;BME280;11362;48.102;11.620;2024-03-22T04:35:56;95708.09;;;24.84;37.07
22389;BME280;11362;48.102;11.620;2024-03-22T04:38:23;95676.38;;;24.85;36.90
22389;BME280;11362;48.102;11.620;2024-03-22T04:40:48;95686.28;;;24.86;37.11
22389;BME280;11362;48.102;11.620;2024-03-22T04:43:17;95679.91;;;24.86;37.06
22389;BME280;11362;48.102;11.620;2024-03-22T04:45:43;95680.31;;;24.84;37.06
22389;BME280;11362;48.102;11.620;2024-03-22T04:48:08;95684.66;;;24.89;37.05
22389;BME280;11362;48.102;11.620;2024-03-22T04:50:34;95712.00;;;24.90;36.86
22389;BME280;11362;48.102;11.620;2024-03-22T04:52:59;95714.38;;;24.92;36.86
22389;BME280;11362;48.102;11.620;2024-03-22T04:55:24;95687.78;;;24.91;37.01
22389;BME280;11362;48.102;11.620;2024-03-22T04:57:51;95687.38;;;24.92;36.99
22389;BME280;11362;48.102;11.620;2024-03-22T05:00:17;95683.44;;;24.90;37.08
22389;BME280;11362;48.102;11.620;2024-03-22T05:02:42;95682.66;;;24.89;37.00
22389;BME280;11362;48.102;11.620;2024-03-22T05:05:08;95682.66;;;24.89;36.94
22389;BME280;11362;48.102;11.620;2024-03-22T05:07:33;95685.03;;;24.91;37.07
22389;BME280;11362;48.102;11.620;2024-03-22T05:09:58;95675.88;;;24.90;36.56
22389;BME280;11362;48.102;11.620;2024-03-22T05:12:24;95679.81;;;24.93;36.60
22389;BME280;11362;48.102;11.620;2024-03-22T05:14:49;95705.19;;;24.95;36.78
22389;BME280;11362;48.102;11.620;2024-03-22T05:17:14;95700.84;;;24.94;36.61
22389;BME280;11362;48.102;11.620;2024-03-22T05:19:39;95703.22;;;24.95;36.80
22389;BME280;11362;48.102;11.620;2024-03-22T05:22:05;95694.13;;;24.91;36.68
22389;BME280;11362;48.102;11.620;2024-03-22T05:24:30;95696.91;;;24.91;36.51
22389;BME280;11362;48.102;11.620;2024-03-22T05:26:55;95697.72;;;24.92;36.88
22389;BME280;11362;48.102;11.620;2024-03-22T05:29:21;95691.34;;;24.91;36.89
22389;BME280;11362;48.102;11.620;2024-03-22T05:31:47;95691.34;;;24.91;36.69
22389;BME280;11362;48.102;11.620;2024-03-22T05:34:13;95694.13;;;24.91;36.66
22389;BME280;11362;48.102;11.620;2024-03-22T05:36:39;95702.41;;;24.95;36.72
22389;BME280;11362;48.102;11.620;2024-03-22T05:39:04;95703.63;;;24.94;36.91
22389;BME280;11362;48.102;11.620;2024-03-22T05:41:29;95700.84;;;24.94;36.74
22389;BME280;11362;48.102;11.620;2024-03-22T05:43:54;95694.94;;;24.92;36.76
22389;BME280;11362;48.102;11.620;2024-03-22T05:46:20;95698.47;;;24.92;36.55
22389;BME280;11362;48.102;11.620;2024-03-22T05:48:45;95696.13;;;24.91;36.62
22389;BME280;11362;48.102;11.620;2024-03-22T05:51:10;95695.34;;;24.90;36.82
22389;BME280;11362;48.102;11.620;2024-03-22T05:53:35;95696.13;;;24.91;36.92
22389;BME280;11362;48.102;11.620;2024-03-22T05:56:01;95688.97;;;24.93;37.06
22389;BME280;11362;48.102;11.620;2024-03-22T05:58:26;95691.31;;;24.95;37.68
22389;BME280;11362;48.102;11.620;2024-03-22T06:00:51;95684.13;;;24.97;37.92
22389;BME280;11362;48.102;11.620;2024-03-22T06:03:16;95677.38;;;24.98;37.70
22389;BME280;11362;48.102;11.620;2024-03-22T06:05:42;95678.94;;;24.99;37.69
22389;BME280;11362;48.102;11.620;2024-03-22T06:08:07;95683.31;;;25.00;37.90
22389;BME280;11362;48.102;11.620;2024-03-22T06:10:32;95683.31;;;25.00;37.95
22389;BME280;11362;48.102;11.620;2024-03-22T06:12:57;95674.97;;;25.00;38.32
22389;BME280;11362;48.102;11.620;2024-03-22T06:15:23;95670.56;;;25.03;38.61
22389;BME280;11362;48.102;11.620;2024-03-22T06:17:48;95672.56;;;25.02;38.32
22389;BME280;11362;48.102;11.620;2024-03-22T06:20:13;95673.28;;;25.06;38.90
22389;BME280;11362;48.102;11.620;2024-03-22T06:22:39;95668.94;;;25.05;38.61
22389;BME280;11362;48.102;11.620;2024-03-22T06:25:04;95672.53;;;25.06;38.71
22389;BME280;11362;48.102;11.620;2024-03-22T06:27:29;95676.06;;;25.06;38.51
22389;BME280;11362;48.102;11.620;2024-03-22T06:29:55;95666.59;;;25.04;38.69
22389;BME280;11362;48.102;11.620;2024-03-22T06:32:20;95672.94;;;25.04;38.58
22389;BME280;11362;48.102;11.620;2024-03-22T06:34:45;95658.66;;;25.02;38.38
22389;BME280;11362;48.102;11.620;2024-03-22T06:37:11;95646.34;;;25.03;38.24
22389;BME280;11362;48.102;11.620;2024-03-22T06:39:36;95634.00;;;25.04;38.15
22389;BME280;11362;48.102;11.620;2024-03-22T06:42:01;95638.34;;;25.05;38.55
22389;BME280;11362;48.102;11.620;2024-03-22T06:44:26;95627.25;;;25.05;38.51
22389;BME280;11362;48.102;11.620;2024-03-22T06:46:52;95644.31;;;25.07;38.43
22389;BME280;11362;48.102;11.620;2024-03-22T06:49:17;95608.53;;;25.09;38.10
22389;BME280;11362;48.102;11.620;2024-03-22T06:51:42;95607.78;;;25.05;38.16
22389;BME280;11362;48.102;11.620;2024-03-22T06:54:07;95612.94;;;25.07;37.82
22389;BME280;11362;48.102;11.620;2024-03-22T06:56:33;95645.06;;;25.08;37.59
22389;BME280;11362;48.102;11.620;2024-03-22T06:58:58;95643.91;;;25.05;37.64
22389;BME280;11362;48.102;11.620;2024-03-22T07:01:23;95611.38;;;25.06;37.16
22389;BME280;11362;48.102;11.620;2024-03-22T07:03:49;95606.63;;;25.03;37.50
22389;BME280;11362;48.102;11.620;2024-03-22T07:06:14;95613.34;;;25.05;37.61
22389;BME280;11362;48.102;11.620;2024-03-22T07:08:40;95648.28;;;25.06;37.39
22389;BME280;11362;48.102;11.620;2024-03-22T07:11:06;95651.06;;;25.06;37.57
22389;BME280;11362;48.102;11.620;2024-03-22T07:13:31;95653.81;;;25.06;37.31
22389;BME280;11362;48.102;11.620;2024-03-22T07:15:56;95646.69;;;25.05;37.57
22389;BME280;11362;48.102;11.620;2024-03-22T07:18:22;95648.28;;;25.06;37.66
22389;BME280;11362;48.102;11.620;2024-03-22T07:20:47;95606.16;;;25.08;37.59
22389;BME280;11362;48.102;11.620;2024-03-22T07:23:12;95605.41;;;25.07;37.58
22389;BME280;11362;48.102;11.620;2024-03-22T07:25:38;95633.97;;;25.08;37.13
22389;BME280;11362;48.102;11.620;2024-03-22T07:28:03;95634.00;;;25.04;37.58
22389;BME280;11362;48.102;11.620;2024-03-22T07:30:28;95638.75;;;25.07;37.36
22389;BME280;11362;48.102;11.620;2024-03-22T07:32:54;95630.03;;;25.05;37.39
22389;BME280;11362;48.102;11.620;2024-03-22T07:35:19;95668.88;;;25.09;37.81
22389;BME280;11362;48.102;11.620;2024-03-22T07:37:44;95664.13;;;25.09;37.58
22389;BME280;11362;48.102;11.620;2024-03-22T07:40:10;95662.13;;;25.10;37.89
22389;BME280;11362;48.102;11.620;2024-03-22T07:42:35;95664.13;;;25.09;38.02
22389;BME280;11362;48.102;11.620;2024-03-22T07:45:00;95668.47;;;25.10;38.03
22389;BME280;11362;48.102;11.620;2024-03-22T07:47:26;95669.69;;;25.09;37.86
22389;BME280;11362;48.102;11.620;2024-03-22T07:49:51;95666.50;;;25.11;38.09
22389;BME280;11362;48.102;11.620;2024-03-22T07:52:16;95668.06;;;25.12;38.55
22389;BME280;11362;48.102;11.620;2024-03-22T07:54:42;95668.44;;;25.14;38.45
22389;BME280;11362;48.102;11.620;2024-03-22T07:57:07;95687.53;;;25.12;38.31
22389;BME280;11362;48.102;11.620;2024-03-22T07:59:32;95687.09;;;25.13;38.23
22389;BME280;11362;48.102;11.620;2024-03-22T08:01:57;95681.53;;;25.13;38.07
22389;BME280;11362;48.102;11.620;2024-03-22T08:04:23;95683.91;;;25.15;37.93
22389;BME280;11362;48.102;11.620;2024-03-22T08:06:50;95672.84;;;25.11;37.80
22389;BME280;11362;48.102;11.620;2024-03-22T08:09:15;95671.22;;;25.14;37.60
22389;BME280;11362;48.102;11.620;2024-03-22T08:11:41;95672.00;;;25.14;37.67
22389;BME280;11362;48.102;11.620;2024-03-22T08:14:06;95666.06;;;25.12;37.78
22389;BME280;11362;48.102;11.620;2024-03-22T08:16:31;95666.44;;;25.14;37.72
22389;BME280;11362;48.102;11.620;2024-03-22T08:18:57;95666.88;;;25.13;37.81
22389;BME280;11362;48.102;11.620;2024-03-22T08:21:23;95665.25;;;25.15;37.97
22389;BME280;11362;48.102;11.620;2024-03-22T08:23:49;95647.34;;;25.16;37.60
22389;BME280;11362;48.102;11.620;2024-03-22T08:26:14;95638.22;;;25.16;37.26
22389;BME280;11362;48.102;11.620;2024-03-22T08:28:39;95632.28;;;25.14;37.42
22389;BME280;11362;48.102;11.620;2024-03-22T08:31:05;95643.00;;;25.15;37.75
22389;BME280;11362;48.102;11.620;2024-03-22T08:33:30;95636.59;;;25.18;37.88
22389;BME280;11362;48.102;11.620;2024-03-22T08:35:56;95639.38;;;25.18;37.86
22389;BME280;11362;48.102;11.620;2024-03-22T08:38:21;95636.22;;;25.16;37.91
22389;BME280;11362;48.102;11.620;2024-03-22T08:40:46;95635.38;;;25.19;37.95
22389;BME280;11362;48.102;11.620;2024-03-22T08:43:12;95626.25;;;25.22;37.75
22389;BME280;11362;48.102;11.620;2024-03-22T08:45:37;95632.59;;;25.23;37.92
22389;BME280;11362;48.102;11.620;2024-03-22T08:48:03;95625.81;;;25.24;37.94
22389;BME280;11362;48.102;11.620;2024-03-22T08:50:28;95624.59;;;25.25;37.93
22389;BME280;11362;48.102;11.620;2024-03-22T08:52:53;95615.09;;;25.26;37.54
22389;BME280;11362;48.102;11.620;2024-03-22T08:55:19;95626.19;;;25.26;37.99
22389;BME280;11362;48.102;11.620;2024-03-22T08:57:44;95618.63;;;25.26;37.99
22389;BME280;11362;48.102;11.620;2024-03-22T09:00:10;95621.00;;;25.28;37.78
22389;BME280;11362;48.102;11.620;2024-03-22T09:02:35;95626.16;;;25.29;37.89
22389;BME280;11362;48.102;11.620;2024-03-22T09:05:01;95610.25;;;25.30;38.08
22389;BME280;11362;48.102;11.620;2024-03-22T09:07:26;95615.38;;;25.31;37.94
22389;BME280;11362;48.102;11.620;2024-03-22T09:09:51;95603.47;;;25.31;38.19
22389;BME280;11362;48.102;11.620;2024-03-22T09:12:16;95603.06;;;25.32;37.91
22389;BME280;11362;48.102;11.620;2024-03-22T09:14:42;95597.06;;;25.34;38.22
22389;BME280;11362;48.102;11.620;2024-03-22T09:17:07;95603.41;;;25.34;37.88
22389;BME280;11362;48.102;11.620;2024-03-22T09:19:32;95596.63;;;25.35;37.81
22389;BME280;11362;48.102;11.620;2024-03-22T09:21:58;95588.28;;;25.35;38.25
22389;BME280;11362;48.102;11.620;2024-03-22T09:24:23;95588.69;;;25.37;37.88
22389;BME280;11362;48.102;11.620;2024-03-22T09:26:48;95589.09;;;25.36;38.11
22389;BME280;11362;48.102;11.620;2024-03-22T09:29:13;95587.47;;;25.38;38.09
22389;BME280;11362;48.102;11.620;2024-03-22T09:31:39;95588.25;;;25.39;38.15
22389;BME280;11362;48.102;11.620;2024-03-22T09:34:04;95573.91;;;25.40;38.36
22389;BME280;11362;48.102;11.620;2024-03-22T09:36:29;95573.97;;;25.37;38.41
22389;BME280;11362;48.102;11.620;2024-03-22T09:38:55;95570.78;;;25.38;38.28
22389;BME280;11362;48.102;11.620;2024-03-22T09:41:24;95574.78;;;25.37;38.61
22389;BME280;11362;48.102;11.620;2024-03-22T09:43:51;95572.34;;;25.39;38.70
22389;BME280;11362;48.102;11.620;2024-03-22T09:46:18;95569.97;;;25.38;38.46
22389;BME280;11362;48.102;11.620;2024-03-22T09:48:44;95571.59;;;25.35;38.65
22389;BME280;11362;48.102;11.620;2024-03-22T09:51:12;95569.97;;;25.38;38.43
22389;BME280;11362;48.102;11.620;2024-03-22T09:53:38;95565.22;;;25.38;38.75
22389;BME280;11362;48.102;11.620;2024-03-22T09:56:05;95561.22;;;25.39;38.46
22389;BME280;11362;48.102;11.620;2024-03-22T09:58:30;95559.66;;;25.38;38.71
22389;BME280;11362;48.102;11.620;2024-03-22T10:00:56;95558.44;;;25.39;38.43
22389;BME280;11362;48.102;11.620;2024-03-22T10:03:21;95554.09;;;25.38;38.58
22389;BME280;11362;48.102;11.620;2024-03-22T10:05:46;95548.53;;;25.38;38.75
22389;BME280;11362;48.102;11.620;2024-03-22T10:08:12;95547.31;;;25.39;39.02
22389;BME280;11362;48.102;11.620;2024-03-22T10:10:37;95536.19;;;25.39;39.18
22389;BME280;11362;48.102;11.620;2024-03-22T10:13:03;95540.53;;;25.40;39.25
22389;BME280;11362;48.102;11.620;2024-03-22T10:15:28;95533.34;;;25.43;39.41
22389;BME280;11362;48.102;11.620;2024-03-22T10:17:54;95533.84;;;25.38;39.36
22389;BME280;11362;48.102;11.620;2024-03-22T10:20:19;95532.25;;;25.37;39.42
22389;BME280;11362;48.102;11.620;2024-03-22T10:22:48;95529.84;;;25.39;39.36
22389;BME280;11362;48.102;11.620;2024-03-22T10:25:14;95531.78;;;25.42;39.65
22389;BME280;11362;48.102;11.620;2024-03-22T10:27:40;95516.72;;;25.39;39.52
22389;BME280;11362;48.102;11.620;2024-03-22T10:30:09;95524.66;;;25.41;39.35
22389;BME280;11362;48.102;11.620;2024-03-22T10:32:38;95517.81;;;25.45;39.47
22389;BME280;11362;48.102;11.620;2024-03-22T10:35:03;95515.81;;;25.46;39.67
22389;BME280;11362;48.102;11.620;2024-03-22T10:37:30;95518.66;;;25.42;39.83
22389;BME280;11362;48.102;11.620;2024-03-22T10:39:56;95512.69;;;25.44;39.56
22389;BME280;11362;48.102;11.620;2024-03-22T10:42:23;95509.47;;;25.45;40.00
22389;BME280;11362;48.102;11.620;2024-03-22T10:44:48;95504.34;;;25.44;39.87
22389;BME280;11362;48.102;11.620;2024-03-22T10:47:17;95511.91;;;25.43;40.09
22389;BME280;11362;48.102;11.620;2024-03-22T10:49:45;95515.75;;;25.49;39.83
22389;BME280;11362;48.102;11.620;2024-03-22T10:52:12;95509.00;;;25.50;39.74
22389;BME280;11362;48.102;11.620;2024-03-22T10:54:40;95479.66;;;25.46;39.80
22389;BME280;11362;48.102;11.620;2024-03-22T10:57:12;95463.34;;;25.48;39.51
22389;BME280;11362;48.102;11.620;2024-03-22T10:59:41;95468.13;;;25.47;39.63
22389;BME280;11362;48.102;11.620;2024-03-22T11:02:10;95461.78;;;25.47;39.53
22389;BME280;11362;48.102;11.620;2024-03-22T11:04:35;95465.34;;;25.47;39.25
22389;BME280;11362;48.102;11.620;2024-03-22T11:07:01;95453.44;;;25.47;39.06
22389;BME280;11362;48.102;11.620;2024-03-22T11:09:26;95449.44;;;25.48;39.65
22389;BME280;11362;48.102;11.620;2024-03-22T11:11:53;95455.78;;;25.48;39.36
22389;BME280;11362;48.102;11.620;2024-03-22T11:14:19;95475.25;;;25.48;39.52
22389;BME280;11362;48.102;11.620;2024-03-22T11:16:44;95476.03;;;25.49;39.02
22389;BME280;11362;48.102;11.620;2024-03-22T11:19:10;95463.69;;;25.50;39.36
22389;BME280;11362;48.102;11.620;2024-03-22T11:21:35;95465.69;;;25.49;39.41
22389;BME280;11362;48.102;11.620;2024-03-22T11:24:01;95468.06;;;25.51;39.47
22389;BME280;11362;48.102;11.620;2024-03-22T11:26:26;95452.94;;;25.52;39.19
22389;BME280;11362;48.102;11.620;2024-03-22T11:28:51;95453.00;;;25.48;39.53
22389;BME280;11362;48.102;11.620;2024-03-22T11:31:17;95460.13;;;25.49;39.34
22389;BME280;11362;48.102;11.620;2024-03-22T11:33:44;95452.22;;;25.48;39.68
22389;BME280;11362;48.102;11.620;2024-03-22T11:36:09;95442.72;;;25.45;39.31
22389;BME280;11362;48.102;11.620;2024-03-22T11:38:35;95439.16;;;25.45;39.39
22389;BME280;11362;48.102;11.620;2024-03-22T11:41:01;95445.88;;;25.47;39.51
22389;BME280;11362;48.102;11.620;2024-03-22T11:43:28;95428.03;;;25.45;39.43
22389;BME280;11362;48.102;11.620;2024-03-22T11:45:55;95432.38;;;25.46;39.43
22389;BME280;11362;48.102;11.620;2024-03-22T11:48:21;95425.19;;;25.48;39.63
22389;BME280;11362;48.102;11.620;2024-03-22T11:50:46;95428.41;;;25.47;39.59
22389;BME280;11362;48.102;11.620;2024-03-22T11:53:12;95415.19;;;25.51;39.48
22389;BME280;11362;48.102;11.620;2024-03-22T11:55:37;95407.28;;;25.49;39.25
22389;BME280;11362;48.102;11.620;2024-03-22T11:58:02;95409.72;;;25.47;39.28
22389;BME280;11362;48.102;11.620;2024-03-22T12:00:28;95397.44;;;25.45;39.43
22389;BME280;11362;48.102;11.620;2024-03-22T12:02:53;95389.47;;;25.47;39.02
22389;BME280;11362;48.102;11.620;2024-03-22T12:05:20;95386.25;;;25.48;39.09
22389;BME280;11362;48.102;11.620;2024-03-22T12:07:45;95395.81;;;25.47;39.34
22389;BME280;11362;48.102;11.620;2024-03-22T12:10:11;95393.50;;;25.42;39.21
22389;BME280;11362;48.102;11.620;2024-03-22T12:12:36;95378.41;;;25.43;39.23
22389;BME280;11362;48.102;11.620;2024-03-22T12:15:02;95380.03;;;25.41;39.32
22389;BME280;11362;48.102;11.620;2024-03-22T12:17:27;95388.75;;;25.43;39.40
22389;BME280;11362;48.102;11.620;2024-03-22T12:19:53;95361.00;;;25.39;39.09
22389;BME280;11362;48.102;11.620;2024-03-22T12:22:18;95366.91;;;25.41;37.97
22389;BME280;11362;48.102;11.620;2024-03-22T12:24:43;95382.03;;;25.40;38.03
22389;BME280;11362;48.102;11.620;2024-03-22T12:27:08;95385.59;;;25.41;37.88
22389;BME280;11362;48.102;11.620;2024-03-22T12:29:34;95378.03;;;25.41;38.13
22389;BME280;11362;48.102;11.620;2024-03-22T12:32:00;95359.44;;;25.38;37.62
22389;BME280;11362;48.102;11.620;2024-03-22T12:34:25;95353.06;;;25.38;37.79
22389;BME280;11362;48.102;11.620;2024-03-22T12:36:50;95345.53;;;25.38;37.25
22389;BME280;11362;48.102;11.620;2024-03-22T12:39:16;95339.16;;;25.38;37.33
22389;BME280;11362;48.102;11.620;2024-03-22T12:41:41;95333.19;;;25.39;37.48